createdAt,value
2018-10-05T00:01:26.727Z,8.00
2018-10-05T00:04:30.405Z,8.60
2018-10-05T00:07:36.814Z,8.50
2018-10-05T00:10:40.402Z,8.30
2018-10-05T00:13:43.950Z,8.73
2018-10-05T00:16:47.514Z,7.80
2018-10-05T00:19:51.454Z,8.30
2018-10-05T00:22:55.043Z,8.20
2018-10-05T00:25:58.645Z,7.53
2018-10-05T00:29:02.434Z,8.00
2018-10-05T00:32:06.131Z,7.43
2018-10-05T00:35:09.659Z,8.23
2018-10-05T00:38:13.180Z,8.57
2018-10-05T00:41:16.721Z,8.40
2018-10-05T00:44:20.304Z,7.77
2018-10-05T00:47:23.832Z,9.20
2018-10-05T00:50:27.434Z,7.80
2018-10-05T00:53:31.080Z,8.43
2018-10-05T00:56:34.641Z,8.60
2018-10-05T00:59:38.226Z,8.20
2018-10-05T01:02:41.766Z,8.30
2018-10-05T01:05:45.487Z,9.00
2018-10-05T01:08:49.121Z,8.97
2018-10-05T01:11:52.662Z,8.73
2018-10-05T01:14:56.262Z,8.10
2018-10-05T01:17:59.785Z,8.00
2018-10-05T01:21:03.505Z,8.40
2018-10-05T01:24:07.155Z,8.37
2018-10-05T01:27:10.867Z,8.30
2018-10-05T01:30:14.516Z,8.20
2018-10-05T01:33:18.047Z,8.90
2018-10-05T01:36:21.522Z,7.60
2018-10-05T01:39:25.146Z,9.40
2018-10-05T01:42:29.000Z,8.40
2018-10-05T01:45:32.550Z,8.93
2018-10-05T01:48:36.193Z,9.57
2018-10-05T01:51:39.717Z,8.50
2018-10-05T01:54:43.391Z,9.07
2018-10-05T01:57:47.036Z,9.37
2018-10-05T02:00:50.518Z,9.27
2018-10-05T02:03:54.131Z,9.83
2018-10-05T02:06:57.750Z,8.63
2018-10-05T02:10:01.277Z,8.97
2018-10-05T02:13:04.823Z,8.00
2018-10-05T02:16:08.737Z,9.10
2018-10-05T02:19:12.372Z,8.40
2018-10-05T02:22:16.036Z,8.50
2018-10-05T02:25:19.618Z,8.23
2018-10-05T02:28:23.229Z,8.20
2018-10-05T02:31:26.811Z,8.30
2018-10-05T02:34:30.398Z,8.77
2018-10-05T02:37:33.931Z,8.27
2018-10-05T02:40:37.558Z,8.67
2018-10-05T02:43:41.123Z,8.63
2018-10-05T02:46:44.642Z,9.23
2018-10-05T02:49:48.268Z,8.40
2018-10-05T02:52:51.955Z,8.50
2018-10-05T02:55:55.427Z,7.43
2018-10-05T02:58:58.973Z,8.73
2018-10-05T03:02:13.517Z,7.70
2018-10-05T03:05:17.131Z,8.40
2018-10-05T03:08:20.617Z,7.83
2018-10-05T03:11:24.188Z,7.70
2018-10-05T03:14:27.823Z,8.47
2018-10-05T03:17:31.320Z,7.93
2018-10-05T03:20:34.833Z,8.97
2018-10-05T03:23:38.628Z,8.00
2018-10-05T03:26:42.271Z,8.27
2018-10-05T03:29:45.973Z,8.10
2018-10-05T03:32:49.546Z,8.03
2018-10-05T03:35:53.142Z,8.03
2018-10-05T03:38:56.685Z,7.80
2018-10-05T03:42:00.306Z,8.57
2018-10-05T03:45:03.875Z,8.07
2018-10-05T03:48:07.458Z,8.90
2018-10-05T03:51:11.058Z,8.50
2018-10-05T03:54:14.592Z,7.93
2018-10-05T03:57:18.184Z,7.70
2018-10-05T04:00:21.802Z,8.23
2018-10-05T04:03:25.335Z,8.50
2018-10-05T04:06:28.944Z,8.60
2018-10-05T04:09:32.471Z,8.03
2018-10-05T04:12:36.197Z,7.40
2018-10-05T04:15:39.757Z,8.40
2018-10-05T04:18:43.298Z,7.60
2018-10-05T04:21:46.989Z,8.40
2018-10-05T04:24:50.529Z,8.37
2018-10-05T04:27:54.156Z,7.90
2018-10-05T04:30:57.725Z,7.33
2018-10-05T04:34:01.326Z,8.07
2018-10-05T04:37:05.087Z,7.67
2018-10-05T04:40:08.637Z,8.27
2018-10-05T04:43:12.292Z,8.20
2018-10-05T04:46:15.799Z,7.70
2018-10-05T04:49:19.448Z,7.53
2018-10-05T04:52:23.047Z,6.90
2018-10-05T04:55:26.613Z,7.70
2018-10-05T04:58:30.199Z,7.87
2018-10-05T05:01:33.793Z,7.20
2018-10-05T05:04:37.312Z,7.40
2018-10-05T05:07:40.793Z,8.13
2018-10-05T05:10:44.275Z,7.30
2018-10-05T05:13:47.973Z,8.97
2018-10-05T05:16:51.469Z,9.63
2018-10-05T05:19:55.185Z,8.73
2018-10-05T05:22:58.869Z,8.17
2018-10-05T05:26:02.428Z,9.20
2018-10-05T05:29:06.413Z,8.03
2018-10-05T05:32:09.987Z,8.70
2018-10-05T05:35:13.529Z,9.10
2018-10-05T05:38:17.055Z,9.00
2018-10-05T05:41:20.573Z,8.33
2018-10-05T05:44:24.153Z,8.47
2018-10-05T05:47:27.695Z,8.00
2018-10-05T05:50:31.300Z,8.10
2018-10-05T05:53:34.989Z,9.43
2018-10-05T05:56:38.598Z,9.37
2018-10-05T05:59:42.113Z,7.90
2018-10-05T06:02:45.648Z,8.27
2018-10-05T06:05:49.275Z,7.33
2018-10-05T06:08:52.807Z,8.57
2018-10-05T06:11:56.324Z,7.87
2018-10-05T06:14:59.921Z,7.40
2018-10-05T06:18:03.550Z,8.10
2018-10-05T06:21:07.287Z,7.30
2018-10-05T06:24:10.907Z,7.17
2018-10-05T06:27:14.534Z,7.53
2018-10-05T06:30:18.111Z,7.20
2018-10-05T06:33:21.844Z,7.03
2018-10-05T06:36:25.314Z,7.27
2018-10-05T06:39:28.802Z,6.30
2018-10-05T06:42:32.393Z,7.13
2018-10-05T06:45:35.931Z,7.33
2018-10-05T06:48:39.724Z,7.17
2018-10-05T06:51:43.529Z,8.47
2018-10-05T06:54:47.154Z,7.10
2018-10-05T06:57:50.615Z,7.07
2018-10-05T07:00:54.214Z,6.63
2018-10-05T07:03:57.811Z,6.50
2018-10-05T07:07:01.316Z,7.20
2018-10-05T07:10:05.162Z,6.23
2018-10-05T07:13:08.801Z,6.93
2018-10-05T07:16:12.425Z,7.50
2018-10-05T07:19:15.935Z,6.37
2018-10-05T07:22:19.543Z,6.57
2018-10-05T07:25:23.166Z,6.97
2018-10-05T07:28:26.908Z,6.80
2018-10-05T07:31:30.375Z,6.23
2018-10-05T07:34:34.012Z,7.53
2018-10-05T07:37:37.524Z,6.10
2018-10-05T07:40:41.034Z,7.07
2018-10-05T07:43:44.556Z,6.43
2018-10-05T07:46:48.157Z,6.40
2018-10-05T07:49:51.796Z,7.30
2018-10-05T07:52:55.359Z,7.23
2018-10-05T07:55:59.059Z,7.50
2018-10-05T07:59:02.726Z,6.57
2018-10-05T08:02:06.566Z,6.60
2018-10-05T08:05:10.105Z,7.47
2018-10-05T08:08:13.581Z,6.70
2018-10-05T08:11:17.507Z,6.53
2018-10-05T08:14:21.009Z,6.83
2018-10-05T08:17:24.546Z,6.50
2018-10-05T08:20:28.257Z,6.70
2018-10-05T08:23:32.023Z,6.50
2018-10-05T08:26:36.680Z,6.43
2018-10-05T08:29:40.195Z,6.47
2018-10-05T08:32:43.843Z,6.33
2018-10-05T08:35:47.401Z,6.90
2018-10-05T08:38:51.011Z,7.30
2018-10-05T08:41:54.710Z,6.33
2018-10-05T08:44:58.301Z,6.30
2018-10-05T08:48:01.811Z,6.40
2018-10-05T08:51:05.377Z,6.47
2018-10-05T08:54:09.468Z,6.30
2018-10-05T08:57:13.199Z,6.63
2018-10-05T09:00:16.903Z,6.50
2018-10-05T09:03:20.472Z,6.27
2018-10-05T09:06:24.017Z,6.57
2018-10-05T09:09:27.546Z,6.07
2018-10-05T09:12:31.135Z,6.77
2018-10-05T09:15:34.716Z,4.93
2018-10-05T09:18:38.586Z,6.80
2018-10-05T09:21:42.147Z,5.90
2018-10-05T09:24:45.665Z,6.87
2018-10-05T09:27:49.200Z,6.67
2018-10-05T09:30:52.918Z,6.80
2018-10-05T09:33:56.557Z,5.23
2018-10-05T09:37:00.191Z,6.00
2018-10-05T09:40:03.787Z,6.17
2018-10-05T09:43:07.431Z,5.80
2018-10-05T09:46:11.209Z,6.80
2018-10-05T09:49:14.831Z,6.13
2018-10-05T09:52:18.577Z,6.77
2018-10-05T09:55:22.272Z,5.50
2018-10-05T09:58:25.848Z,5.63
2018-10-05T10:01:34.656Z,6.00
2018-10-05T10:04:38.192Z,5.50
2018-10-05T10:07:41.838Z,5.60
2018-10-05T10:10:45.495Z,5.40
2018-10-05T10:13:49.129Z,5.00
2018-10-05T10:16:52.616Z,5.33
2018-10-05T10:19:56.247Z,4.90
2018-10-05T10:22:59.821Z,6.27
2018-10-05T10:26:03.482Z,5.23
2018-10-05T10:29:07.132Z,4.23
2018-10-05T10:32:10.519Z,4.87
2018-10-05T10:35:14.151Z,4.87
2018-10-05T10:38:17.786Z,5.67
2018-10-05T10:41:21.413Z,4.90
2018-10-05T10:44:24.978Z,5.17
2018-10-05T10:47:28.755Z,4.70
2018-10-05T10:50:32.302Z,4.40
2018-10-05T10:53:35.894Z,5.37
2018-10-05T10:56:39.469Z,4.53
2018-10-05T10:59:43.029Z,4.97
2018-10-05T11:02:46.552Z,5.57
2018-10-05T11:05:50.157Z,4.40
2018-10-05T11:08:53.679Z,5.47
2018-10-05T11:11:57.222Z,5.07
2018-10-05T11:15:00.789Z,4.27
2018-10-05T11:18:04.285Z,4.50
2018-10-05T11:21:08.008Z,4.53
2018-10-05T11:24:11.593Z,4.23
2018-10-05T11:27:15.205Z,4.90
2018-10-05T11:30:18.887Z,4.73
2018-10-05T11:33:22.388Z,4.70
2018-10-05T11:36:25.932Z,4.30
2018-10-05T11:39:29.534Z,4.20
2018-10-05T11:42:33.127Z,4.13
2018-10-05T11:45:36.837Z,4.53
2018-10-05T11:48:40.413Z,4.03
2018-10-05T11:51:44.085Z,4.53
2018-10-05T11:54:47.645Z,4.33
2018-10-05T11:57:51.328Z,3.90
2018-10-05T12:00:54.930Z,4.67
2018-10-05T12:03:58.498Z,4.20
2018-10-05T12:07:02.148Z,4.53
2018-10-05T12:10:06.014Z,3.70
2018-10-05T12:13:09.527Z,3.90
2018-10-05T12:16:13.133Z,3.97
2018-10-05T12:19:16.703Z,3.77
2018-10-05T12:22:20.510Z,3.73
2018-10-05T12:25:24.188Z,3.70
2018-10-05T12:28:27.739Z,3.90
2018-10-05T12:31:31.404Z,3.10
2018-10-05T12:34:35.010Z,3.90
2018-10-05T12:37:38.699Z,3.50
2018-10-05T12:40:42.374Z,4.00
2018-10-05T12:43:46.026Z,3.80
2018-10-05T12:46:49.558Z,3.70
2018-10-05T12:49:53.989Z,3.30
2018-10-05T12:52:57.815Z,3.67
2018-10-05T12:56:01.444Z,3.50
2018-10-05T12:59:05.068Z,3.30
2018-10-05T13:02:08.780Z,3.30
2018-10-05T13:05:12.348Z,3.43
2018-10-05T13:08:16.085Z,3.37
2018-10-05T13:11:19.665Z,3.43
2018-10-05T13:14:23.290Z,3.63
2018-10-05T13:17:27.099Z,3.77
2018-10-05T13:20:30.667Z,3.80
2018-10-05T13:23:34.267Z,3.40
2018-10-05T13:26:37.886Z,3.60
2018-10-05T13:29:41.525Z,3.70
2018-10-05T13:32:45.240Z,3.90
2018-10-05T13:35:48.800Z,3.90
2018-10-05T13:38:52.430Z,3.73
2018-10-05T13:41:56.165Z,4.20
2018-10-05T13:44:59.728Z,4.00
2018-10-05T13:48:03.299Z,3.77
2018-10-05T13:51:07.005Z,3.40
2018-10-05T13:54:10.600Z,4.00
2018-10-05T13:57:14.220Z,3.87
2018-10-05T14:00:17.827Z,3.80
2018-10-05T14:03:21.479Z,3.87
2018-10-05T14:06:25.168Z,3.60
2018-10-05T14:09:28.759Z,4.07
2018-10-05T14:12:32.330Z,3.70
2018-10-05T14:15:35.974Z,4.47
2018-10-05T14:18:39.563Z,3.53
2018-10-05T14:21:43.255Z,4.63
2018-10-05T14:24:46.884Z,3.87
2018-10-05T14:27:50.476Z,3.53
2018-10-05T14:30:54.034Z,4.40
2018-10-05T14:33:57.664Z,4.20
2018-10-05T14:37:01.224Z,4.37
2018-10-05T14:40:05.136Z,4.20
2018-10-05T14:43:08.676Z,4.20
2018-10-05T14:46:12.336Z,4.33
2018-10-05T14:49:16.116Z,4.20
2018-10-05T14:52:23.945Z,4.70
2018-10-05T14:55:27.636Z,4.03
2018-10-05T14:58:31.209Z,4.10
2018-10-05T15:01:34.916Z,4.60
2018-10-05T15:04:38.626Z,3.77
2018-10-05T15:07:42.204Z,4.03
2018-10-05T15:10:46.031Z,3.80
2018-10-05T15:13:49.701Z,4.10
2018-10-05T15:16:53.377Z,4.43
2018-10-05T15:19:56.994Z,5.00
2018-10-05T15:23:00.665Z,5.17
2018-10-05T15:26:04.269Z,5.20
2018-10-05T15:29:07.897Z,4.27
2018-10-05T15:32:11.514Z,4.60
2018-10-05T15:35:15.097Z,4.30
2018-10-05T15:38:18.699Z,4.03
2018-10-05T15:41:22.245Z,4.23
2018-10-05T15:44:25.865Z,4.23
2018-10-05T15:47:29.413Z,4.20
2018-10-05T15:50:33.041Z,4.20
2018-10-05T15:53:36.893Z,4.50
2018-10-05T15:56:40.454Z,3.63
2018-10-05T15:59:44.073Z,4.40
2018-10-05T16:02:47.640Z,4.00
2018-10-05T16:05:51.464Z,3.93
2018-10-05T16:08:55.020Z,4.20
2018-10-05T16:11:58.672Z,4.70
2018-10-05T16:15:02.324Z,3.80
2018-10-05T16:18:05.970Z,4.53
2018-10-05T16:21:09.571Z,4.60
2018-10-05T16:24:21.375Z,4.57
2018-10-05T16:27:24.985Z,4.30
2018-10-05T16:30:28.644Z,4.70
2018-10-05T16:33:32.292Z,4.00
2018-10-05T16:36:35.877Z,3.97
2018-10-05T16:39:39.613Z,4.20
2018-10-05T16:42:43.391Z,4.33
2018-10-05T16:45:47.023Z,4.00
2018-10-05T16:48:50.668Z,4.20
2018-10-05T16:51:54.383Z,4.03
2018-10-05T16:54:58.068Z,3.80
2018-10-05T16:58:01.763Z,4.57
2018-10-05T17:01:05.378Z,3.80
2018-10-05T17:04:08.946Z,4.23
2018-10-05T17:07:12.536Z,4.53
2018-10-05T17:10:16.123Z,4.30
2018-10-05T17:13:19.722Z,4.00
2018-10-05T17:16:23.307Z,4.50
2018-10-05T17:19:27.044Z,3.50
2018-10-05T17:22:30.681Z,3.90
2018-10-05T17:25:34.316Z,4.03
2018-10-05T17:28:38.034Z,3.87
2018-10-05T17:31:41.712Z,3.77
2018-10-05T17:34:45.349Z,3.87
2018-10-05T17:37:49.235Z,3.70
2018-10-05T17:40:53.029Z,4.10
2018-10-05T17:43:56.630Z,3.80
2018-10-05T17:47:00.285Z,3.73
2018-10-05T17:50:04.303Z,3.90
2018-10-05T17:53:08.032Z,4.00
2018-10-05T17:56:11.753Z,3.93
2018-10-05T17:59:15.269Z,4.60
2018-10-05T18:02:19.094Z,3.70
2018-10-05T18:05:22.830Z,4.40
2018-10-05T18:08:26.684Z,3.90
2018-10-05T18:11:30.282Z,3.70
2018-10-05T18:14:34.007Z,4.40
2018-10-05T18:17:38.144Z,4.10
2018-10-05T18:20:41.858Z,3.77
2018-10-05T18:23:45.455Z,4.23
2018-10-05T18:26:49.122Z,4.07
2018-10-05T18:29:52.734Z,4.13
2018-10-05T18:32:56.479Z,3.90
2018-10-05T18:36:00.192Z,4.17
2018-10-05T18:39:05.060Z,4.17
2018-10-05T18:42:08.708Z,4.40
2018-10-05T18:45:12.392Z,4.40
2018-10-05T18:48:16.060Z,4.40
2018-10-05T18:51:20.006Z,4.27
2018-10-05T18:54:23.686Z,4.37
2018-10-05T18:57:27.726Z,4.40
2018-10-05T19:00:31.405Z,3.60
2018-10-05T19:03:35.118Z,3.97
2018-10-05T19:06:39.041Z,3.90
2018-10-05T19:09:43.003Z,3.80
2018-10-05T19:12:46.663Z,4.27
2018-10-05T19:15:50.338Z,3.93
2018-10-05T19:18:54.133Z,3.73
2018-10-05T19:21:57.724Z,4.27
2018-10-05T19:25:01.680Z,4.47
2018-10-05T19:28:05.334Z,4.33
2018-10-05T19:31:09.099Z,4.30
2018-10-05T19:34:12.906Z,4.13
2018-10-05T19:37:16.504Z,4.20
2018-10-05T19:40:20.287Z,4.70
2018-10-05T19:43:23.970Z,5.00
2018-10-05T19:46:27.910Z,4.20
2018-10-05T19:49:31.780Z,3.80
2018-10-05T19:52:35.699Z,4.07
2018-10-05T19:55:39.452Z,4.27
2018-10-05T19:58:43.183Z,4.80
2018-10-05T20:01:47.033Z,4.77
2018-10-05T20:04:51.674Z,4.47
2018-10-05T20:07:55.382Z,4.10
2018-10-05T20:10:59.091Z,4.20
2018-10-05T20:14:02.710Z,5.33
2018-10-05T20:17:06.660Z,4.37
2018-10-05T20:20:10.383Z,3.93
2018-10-05T20:23:14.100Z,4.30
2018-10-05T20:26:17.682Z,4.57
2018-10-05T20:29:21.415Z,4.17
2018-10-05T20:32:25.171Z,4.03
2018-10-05T20:35:28.927Z,3.80
2018-10-05T20:38:32.649Z,4.50
2018-10-05T20:41:36.786Z,4.37
2018-10-05T20:44:40.624Z,17.23
2018-10-05T20:47:44.230Z,4.80
2018-10-05T20:50:48.083Z,4.83
2018-10-05T20:53:51.974Z,4.97
2018-10-05T20:56:55.670Z,4.30
2018-10-05T20:59:59.445Z,4.00
2018-10-05T21:03:03.489Z,4.27
2018-10-05T21:06:07.283Z,4.10
2018-10-05T21:09:11.397Z,4.27
2018-10-05T21:12:15.011Z,4.60
2018-10-05T21:15:18.844Z,4.60
2018-10-05T21:18:22.443Z,4.90
2018-10-05T21:21:26.043Z,6.90
2018-10-05T21:24:29.639Z,5.33
2018-10-05T21:27:33.410Z,4.83
2018-10-05T21:30:37.126Z,5.37
2018-10-05T21:33:42.172Z,5.30
2018-10-05T21:36:45.801Z,5.70
2018-10-05T21:39:49.355Z,5.00
2018-10-05T21:42:52.991Z,5.00
2018-10-05T21:45:56.758Z,5.90
2018-10-05T21:49:00.468Z,4.30
2018-10-05T21:52:04.383Z,5.40
2018-10-05T21:55:07.988Z,6.70
2018-10-05T21:58:11.627Z,6.20
2018-10-05T22:01:15.422Z,5.90
2018-10-05T22:04:19.231Z,5.30
2018-10-05T22:07:23.190Z,4.73
2018-10-05T22:10:26.720Z,4.60
2018-10-05T22:13:30.587Z,4.90
2018-10-05T22:16:34.353Z,4.93
2018-10-05T22:19:38.189Z,4.27
2018-10-05T22:22:41.667Z,4.90
2018-10-05T22:25:53.890Z,4.40
2018-10-05T22:28:57.682Z,4.40
2018-10-05T22:32:01.462Z,4.63
2018-10-05T22:35:05.350Z,4.27
2018-10-05T22:38:09.220Z,4.90
2018-10-05T22:41:12.812Z,4.50
2018-10-05T22:44:16.423Z,4.77
2018-10-05T22:47:20.012Z,4.73
2018-10-05T22:50:23.566Z,4.50
2018-10-05T22:53:27.321Z,4.70
2018-10-05T22:56:30.924Z,4.60
2018-10-05T22:59:34.580Z,4.83
2018-10-05T23:02:38.283Z,5.10
2018-10-05T23:05:41.857Z,4.67
2018-10-05T23:08:45.509Z,4.80
2018-10-05T23:11:49.281Z,4.90
2018-10-05T23:14:53.031Z,4.70
2018-10-05T23:17:56.692Z,4.80
2018-10-05T23:21:00.256Z,5.20
2018-10-05T23:24:04.010Z,5.00
2018-10-05T23:27:07.736Z,5.20
2018-10-05T23:30:11.312Z,4.63
2018-10-05T23:33:15.111Z,5.00
2018-10-05T23:36:18.706Z,5.27
2018-10-05T23:39:22.258Z,4.73
2018-10-05T23:42:25.825Z,4.70
2018-10-05T23:45:29.351Z,4.47
2018-10-05T23:48:32.917Z,5.23
2018-10-05T23:51:37.376Z,5.27
2018-10-05T23:54:40.950Z,5.60
2018-10-05T23:57:44.783Z,5.20
